sensor_id;sensor_type;location;lat;lon;timestamp;P1;durP1;ratioP1;P2;durP2;ratioP2
4547;SDS011;2286;51.570;7.090;2023-04-24T00:01:08;1.27;;;0.80;;
4547;SDS011;2286;51.570;7.090;2023-04-24T00:03:36;1.20;;;1.10;;
4547;SDS011;2286;51.570;7.090;2023-04-24T00:06:04;1.63;;;0.70;;
4547;SDS011;2286;51.570;7.090;2023-04-24T00:08:31;0.90;;;0.70;;
4547;SDS011;2286;51.570;7.090;2023-04-24T00:11:00;1.80;;;0.80;;
4547;SDS011;2286;51.570;7.090;2023-04-24T00:13:27;1.90;;;0.93;;
4547;SDS011;2286;51.570;7.090;2023-04-24T00:15:54;1.17;;;0.87;;
4547;SDS011;2286;51.570;7.090;2023-04-24T00:18:21;1.20;;;0.70;;
4547;SDS011;2286;51.570;7.090;2023-04-24T00:20:48;0.80;;;0.70;;
4547;SDS011;2286;51.570;7.090;2023-04-24T00:23:15;0.80;;;0.70;;
4547;SDS011;2286;51.570;7.090;2023-04-24T00:25:42;0.97;;;0.87;;
4547;SDS011;2286;51.570;7.090;2023-04-24T00:28:11;1.07;;;0.70;;
4547;SDS011;2286;51.570;7.090;2023-04-24T00:30:38;1.70;;;0.90;;
4547;SDS011;2286;51.570;7.090;2023-04-24T00:33:05;2.50;;;1.10;;
4547;SDS011;2286;51.570;7.090;2023-04-24T00:35:32;1.90;;;0.90;;
4547;SDS011;2286;51.570;7.090;2023-04-24T00:37:59;2.00;;;0.90;;
4547;SDS011;2286;51.570;7.090;2023-04-24T00:40:26;2.77;;;1.10;;
4547;SDS011;2286;51.570;7.090;2023-04-24T00:42:54;1.27;;;1.10;;
4547;SDS011;2286;51.570;7.090;2023-04-24T00:45:22;1.00;;;0.90;;
4547;SDS011;2286;51.570;7.090;2023-04-24T00:47:49;0.90;;;0.90;;
4547;SDS011;2286;51.570;7.090;2023-04-24T00:50:20;2.20;;;1.17;;
4547;SDS011;2286;51.570;7.090;2023-04-24T00:52:47;0.90;;;0.90;;
4547;SDS011;2286;51.570;7.090;2023-04-24T00:55:14;2.77;;;1.37;;
4547;SDS011;2286;51.570;7.090;2023-04-24T00:57:41;1.17;;;1.00;;
4547;SDS011;2286;51.570;7.090;2023-04-24T01:00:09;1.30;;;1.20;;
4547;SDS011;2286;51.570;7.090;2023-04-24T01:02:39;2.20;;;1.20;;
4547;SDS011;2286;51.570;7.090;2023-04-24T01:05:09;1.93;;;1.20;;
4547;SDS011;2286;51.570;7.090;2023-04-24T01:07:37;1.53;;;1.10;;
4547;SDS011;2286;51.570;7.090;2023-04-24T01:10:06;1.40;;;1.20;;
4547;SDS011;2286;51.570;7.090;2023-04-24T01:12:34;1.40;;;1.30;;
4547;SDS011;2286;51.570;7.090;2023-04-24T01:15:01;1.27;;;1.17;;
4547;SDS011;2286;51.570;7.090;2023-04-24T01:17:30;2.00;;;1.53;;
4547;SDS011;2286;51.570;7.090;2023-04-24T01:19:59;2.10;;;1.30;;
4547;SDS011;2286;51.570;7.090;2023-04-24T01:22:28;1.63;;;1.30;;
4547;SDS011;2286;51.570;7.090;2023-04-24T01:24:55;1.30;;;1.20;;
4547;SDS011;2286;51.570;7.090;2023-04-24T01:27:22;1.50;;;1.40;;
4547;SDS011;2286;51.570;7.090;2023-04-24T01:29:50;1.60;;;1.50;;
4547;SDS011;2286;51.570;7.090;2023-04-24T01:32:17;2.83;;;1.90;;
4547;SDS011;2286;51.570;7.090;2023-04-24T01:34:45;3.00;;;1.80;;
4547;SDS011;2286;51.570;7.090;2023-04-24T01:37:12;2.77;;;2.27;;
4547;SDS011;2286;51.570;7.090;2023-04-24T01:39:42;3.20;;;2.90;;
4547;SDS011;2286;51.570;7.090;2023-04-24T01:42:09;3.03;;;2.70;;
4547;SDS011;2286;51.570;7.090;2023-04-24T01:44:36;3.10;;;2.80;;
4547;SDS011;2286;51.570;7.090;2023-04-24T01:47:03;4.50;;;4.10;;
4547;SDS011;2286;51.570;7.090;2023-04-24T01:49:31;4.80;;;4.40;;
4547;SDS011;2286;51.570;7.090;2023-04-24T01:51:59;5.40;;;4.53;;
4547;SDS011;2286;51.570;7.090;2023-04-24T01:54:26;6.23;;;4.60;;
4547;SDS011;2286;51.570;7.090;2023-04-24T01:56:55;6.50;;;6.00;;
4547;SDS011;2286;51.570;7.090;2023-04-24T01:59:22;5.70;;;5.20;;
4547;SDS011;2286;51.570;7.090;2023-04-24T02:01:51;8.00;;;5.90;;
4547;SDS011;2286;51.570;7.090;2023-04-24T02:04:18;5.73;;;5.33;;
4547;SDS011;2286;51.570;7.090;2023-04-24T02:06:45;5.70;;;4.10;;
4547;SDS011;2286;51.570;7.090;2023-04-24T02:09:12;4.63;;;3.97;;
4547;SDS011;2286;51.570;7.090;2023-04-24T02:11:39;4.37;;;3.60;;
4547;SDS011;2286;51.570;7.090;2023-04-24T02:14:07;3.97;;;3.67;;
4547;SDS011;2286;51.570;7.090;2023-04-24T02:16:34;5.33;;;4.93;;
4547;SDS011;2286;51.570;7.090;2023-04-24T02:19:01;4.70;;;4.30;;
4547;SDS011;2286;51.570;7.090;2023-04-24T02:21:29;4.50;;;4.10;;
4547;SDS011;2286;51.570;7.090;2023-04-24T02:23:56;4.00;;;3.70;;
4547;SDS011;2286;51.570;7.090;2023-04-24T02:26:24;4.13;;;3.70;;
4547;SDS011;2286;51.570;7.090;2023-04-24T02:28:51;4.70;;;4.40;;
4547;SDS011;2286;51.570;7.090;2023-04-24T02:31:19;7.70;;;5.00;;
4547;SDS011;2286;51.570;7.090;2023-04-24T02:33:46;4.90;;;4.50;;
4547;SDS011;2286;51.570;7.090;2023-04-24T02:36:13;5.87;;;4.93;;
4547;SDS011;2286;51.570;7.090;2023-04-24T02:38:40;13.63;;;6.30;;
4547;SDS011;2286;51.570;7.090;2023-04-24T02:41:07;7.03;;;6.43;;
4547;SDS011;2286;51.570;7.090;2023-04-24T02:43:34;6.93;;;6.30;;
4547;SDS011;2286;51.570;7.090;2023-04-24T02:46:01;6.60;;;6.00;;
4547;SDS011;2286;51.570;7.090;2023-04-24T02:48:30;9.23;;;6.60;;
4547;SDS011;2286;51.570;7.090;2023-04-24T02:50:57;7.20;;;6.50;;
4547;SDS011;2286;51.570;7.090;2023-04-24T02:53:25;7.47;;;6.73;;
4547;SDS011;2286;51.570;7.090;2023-04-24T02:55:51;7.93;;;7.23;;
4547;SDS011;2286;51.570;7.090;2023-04-24T02:58:19;8.83;;;8.00;;
4547;SDS011;2286;51.570;7.090;2023-04-24T03:00:46;9.37;;;8.43;;
4547;SDS011;2286;51.570;7.090;2023-04-24T03:03:13;13.17;;;8.33;;
4547;SDS011;2286;51.570;7.090;2023-04-24T03:05:41;9.07;;;8.10;;
4547;SDS011;2286;51.570;7.090;2023-04-24T03:08:08;13.80;;;7.93;;
4547;SDS011;2286;51.570;7.090;2023-04-24T03:10:36;10.37;;;9.30;;
4547;SDS011;2286;51.570;7.090;2023-04-24T03:13:03;11.47;;;8.80;;
4547;SDS011;2286;51.570;7.090;2023-04-24T03:15:30;10.80;;;9.13;;
4547;SDS011;2286;51.570;7.090;2023-04-24T03:17:57;10.50;;;9.40;;
4547;SDS011;2286;51.570;7.090;2023-04-24T03:20:23;10.00;;;9.10;;
4547;SDS011;2286;51.570;7.090;2023-04-24T03:22:52;8.93;;;8.23;;
4547;SDS011;2286;51.570;7.090;2023-04-24T03:25:19;10.17;;;9.03;;
4547;SDS011;2286;51.570;7.090;2023-04-24T03:27:46;10.40;;;9.40;;
4547;SDS011;2286;51.570;7.090;2023-04-24T03:30:13;11.47;;;9.20;;
4547;SDS011;2286;51.570;7.090;2023-04-24T03:32:40;10.77;;;9.60;;
4547;SDS011;2286;51.570;7.090;2023-04-24T03:35:07;12.70;;;9.83;;
4547;SDS011;2286;51.570;7.090;2023-04-24T03:37:34;11.17;;;10.07;;
4547;SDS011;2286;51.570;7.090;2023-04-24T03:40:03;11.30;;;10.20;;
4547;SDS011;2286;51.570;7.090;2023-04-24T03:42:31;12.23;;;10.20;;
4547;SDS011;2286;51.570;7.090;2023-04-24T03:44:57;12.20;;;10.80;;
4547;SDS011;2286;51.570;7.090;2023-04-24T03:47:24;20.20;;;13.13;;
4547;SDS011;2286;51.570;7.090;2023-04-24T03:49:51;14.70;;;11.13;;
4547;SDS011;2286;51.570;7.090;2023-04-24T03:52:19;13.13;;;11.73;;
4547;SDS011;2286;51.570;7.090;2023-04-24T03:54:46;12.77;;;11.27;;
4547;SDS011;2286;51.570;7.090;2023-04-24T03:57:14;14.30;;;11.53;;
4547;SDS011;2286;51.570;7.090;2023-04-24T03:59:41;14.00;;;12.07;;
4547;SDS011;2286;51.570;7.090;2023-04-24T04:02:08;12.83;;;10.83;;
4547;SDS011;2286;51.570;7.090;2023-04-24T04:04:35;15.70;;;11.60;;
4547;SDS011;2286;51.570;7.090;2023-04-24T04:07:02;12.43;;;10.70;;
4547;SDS011;2286;51.570;7.090;2023-04-24T04:09:30;14.50;;;12.30;;
4547;SDS011;2286;51.570;7.090;2023-04-24T04:11:57;12.70;;;10.80;;
4547;SDS011;2286;51.570;7.090;2023-04-24T04:14:27;12.90;;;10.90;;
4547;SDS011;2286;51.570;7.090;2023-04-24T04:16:53;12.10;;;10.80;;
4547;SDS011;2286;51.570;7.090;2023-04-24T04:19:20;14.70;;;11.10;;
4547;SDS011;2286;51.570;7.090;2023-04-24T04:21:47;13.07;;;11.73;;
4547;SDS011;2286;51.570;7.090;2023-04-24T04:24:18;11.93;;;10.83;;
4547;SDS011;2286;51.570;7.090;2023-04-24T04:26:45;20.63;;;10.83;;
4547;SDS011;2286;51.570;7.090;2023-04-24T04:29:12;11.87;;;10.60;;
4547;SDS011;2286;51.570;7.090;2023-04-24T04:31:41;11.43;;;9.83;;
4547;SDS011;2286;51.570;7.090;2023-04-24T04:34:08;12.30;;;11.10;;
4547;SDS011;2286;51.570;7.090;2023-04-24T04:36:36;14.60;;;11.30;;
4547;SDS011;2286;51.570;7.090;2023-04-24T04:39:05;12.13;;;10.73;;
4547;SDS011;2286;51.570;7.090;2023-04-24T04:41:32;12.37;;;11.07;;
4547;SDS011;2286;51.570;7.090;2023-04-24T04:44:00;18.03;;;10.87;;
4547;SDS011;2286;51.570;7.090;2023-04-24T04:46:29;13.57;;;10.87;;
4547;SDS011;2286;51.570;7.090;2023-04-24T04:49:00;12.07;;;10.10;;
4547;SDS011;2286;51.570;7.090;2023-04-24T04:51:28;10.00;;;9.00;;
4547;SDS011;2286;51.570;7.090;2023-04-24T04:53:56;13.20;;;10.17;;
4547;SDS011;2286;51.570;7.090;2023-04-24T04:56:23;10.87;;;9.63;;
4547;SDS011;2286;51.570;7.090;2023-04-24T04:58:50;11.33;;;10.23;;
4547;SDS011;2286;51.570;7.090;2023-04-24T05:01:17;11.13;;;9.57;;
4547;SDS011;2286;51.570;7.090;2023-04-24T05:03:45;12.93;;;11.60;;
4547;SDS011;2286;51.570;7.090;2023-04-24T05:06:13;11.63;;;10.00;;
4547;SDS011;2286;51.570;7.090;2023-04-24T05:08:41;12.53;;;10.40;;
4547;SDS011;2286;51.570;7.090;2023-04-24T05:11:08;11.33;;;10.03;;
4547;SDS011;2286;51.570;7.090;2023-04-24T05:13:34;10.70;;;9.67;;
4547;SDS011;2286;51.570;7.090;2023-04-24T05:16:01;10.70;;;9.63;;
4547;SDS011;2286;51.570;7.090;2023-04-24T05:18:28;11.33;;;10.17;;
4547;SDS011;2286;51.570;7.090;2023-04-24T05:20:55;11.27;;;10.10;;
4547;SDS011;2286;51.570;7.090;2023-04-24T05:23:24;10.20;;;9.20;;
4547;SDS011;2286;51.570;7.090;2023-04-24T05:25:51;11.03;;;9.53;;
4547;SDS011;2286;51.570;7.090;2023-04-24T05:28:18;10.27;;;9.27;;
4547;SDS011;2286;51.570;7.090;2023-04-24T05:30:45;11.43;;;10.20;;
4547;SDS011;2286;51.570;7.090;2023-04-24T05:33:12;10.10;;;8.90;;
4547;SDS011;2286;51.570;7.090;2023-04-24T05:35:39;9.13;;;8.10;;
4547;SDS011;2286;51.570;7.090;2023-04-24T05:38:10;11.00;;;8.60;;
4547;SDS011;2286;51.570;7.090;2023-04-24T05:40:39;9.00;;;8.10;;
4547;SDS011;2286;51.570;7.090;2023-04-24T05:43:06;8.90;;;8.20;;
4547;SDS011;2286;51.570;7.090;2023-04-24T05:45:32;9.30;;;8.20;;
4547;SDS011;2286;51.570;7.090;2023-04-24T05:48:01;10.40;;;7.40;;
4547;SDS011;2286;51.570;7.090;2023-04-24T05:50:28;10.53;;;9.37;;
4547;SDS011;2286;51.570;7.090;2023-04-24T05:52:54;10.17;;;9.17;;
4547;SDS011;2286;51.570;7.090;2023-04-24T05:55:23;11.43;;;10.33;;
4547;SDS011;2286;51.570;7.090;2023-04-24T05:57:51;11.70;;;10.50;;
4547;SDS011;2286;51.570;7.090;2023-04-24T06:00:18;12.97;;;10.90;;
4547;SDS011;2286;51.570;7.090;2023-04-24T06:02:46;13.17;;;10.80;;
4547;SDS011;2286;51.570;7.090;2023-04-24T06:05:12;12.90;;;11.70;;
4547;SDS011;2286;51.570;7.090;2023-04-24T06:07:40;12.70;;;11.47;;
4547;SDS011;2286;51.570;7.090;2023-04-24T06:10:07;12.90;;;11.57;;
4547;SDS011;2286;51.570;7.090;2023-04-24T06:12:34;13.20;;;12.00;;
4547;SDS011;2286;51.570;7.090;2023-04-24T06:15:03;15.60;;;13.20;;
4547;SDS011;2286;51.570;7.090;2023-04-24T06:17:30;13.50;;;10.40;;
4547;SDS011;2286;51.570;7.090;2023-04-24T06:19:58;11.47;;;10.23;;
4547;SDS011;2286;51.570;7.090;2023-04-24T06:22:24;13.40;;;12.10;;
4547;SDS011;2286;51.570;7.090;2023-04-24T06:24:51;12.13;;;10.93;;
4547;SDS011;2286;51.570;7.090;2023-04-24T06:27:18;11.80;;;10.60;;
4547;SDS011;2286;51.570;7.090;2023-04-24T06:29:45;10.60;;;9.67;;
4547;SDS011;2286;51.570;7.090;2023-04-24T06:32:19;10.07;;;9.07;;
4547;SDS011;2286;51.570;7.090;2023-04-24T06:34:46;9.60;;;8.80;;
4547;SDS011;2286;51.570;7.090;2023-04-24T06:37:12;10.97;;;9.90;;
4547;SDS011;2286;51.570;7.090;2023-04-24T06:39:41;11.20;;;10.10;;
4547;SDS011;2286;51.570;7.090;2023-04-24T06:42:08;10.27;;;9.40;;
4547;SDS011;2286;51.570;7.090;2023-04-24T06:44:35;13.40;;;10.30;;
4547;SDS011;2286;51.570;7.090;2023-04-24T06:47:06;10.33;;;9.43;;
4547;SDS011;2286;51.570;7.090;2023-04-24T06:49:35;10.30;;;9.27;;
4547;SDS011;2286;51.570;7.090;2023-04-24T06:52:01;10.17;;;9.10;;
4547;SDS011;2286;51.570;7.090;2023-04-24T06:54:28;10.90;;;9.80;;
4547;SDS011;2286;51.570;7.090;2023-04-24T06:56:55;11.13;;;10.10;;
4547;SDS011;2286;51.570;7.090;2023-04-24T06:59:23;11.40;;;10.23;;
4547;SDS011;2286;51.570;7.090;2023-04-24T07:01:50;11.13;;;10.07;;
4547;SDS011;2286;51.570;7.090;2023-04-24T07:04:17;10.60;;;9.30;;
4547;SDS011;2286;51.570;7.090;2023-04-24T07:06:46;10.07;;;9.07;;
4547;SDS011;2286;51.570;7.090;2023-04-24T07:09:14;9.97;;;8.97;;
4547;SDS011;2286;51.570;7.090;2023-04-24T07:11:43;9.50;;;8.60;;
4547;SDS011;2286;51.570;7.090;2023-04-24T07:14:10;10.93;;;8.00;;
4547;SDS011;2286;51.570;7.090;2023-04-24T07:16:37;9.10;;;8.30;;
4547;SDS011;2286;51.570;7.090;2023-04-24T07:19:04;9.30;;;8.43;;
4547;SDS011;2286;51.570;7.090;2023-04-24T07:21:31;8.63;;;7.90;;
4547;SDS011;2286;51.570;7.090;2023-04-24T07:23:59;8.47;;;7.67;;
4547;SDS011;2286;51.570;7.090;2023-04-24T07:26:27;6.97;;;6.40;;
4547;SDS011;2286;51.570;7.090;2023-04-24T07:28:55;6.73;;;6.13;;
4547;SDS011;2286;51.570;7.090;2023-04-24T07:31:22;6.83;;;6.23;;
4547;SDS011;2286;51.570;7.090;2023-04-24T07:33:49;6.00;;;5.50;;
4547;SDS011;2286;51.570;7.090;2023-04-24T07:36:15;6.00;;;5.50;;
4547;SDS011;2286;51.570;7.090;2023-04-24T07:38:44;5.80;;;5.27;;
4547;SDS011;2286;51.570;7.090;2023-04-24T07:41:12;7.70;;;5.23;;
4547;SDS011;2286;51.570;7.090;2023-04-24T07:43:40;4.63;;;4.20;;
4547;SDS011;2286;51.570;7.090;2023-04-24T07:46:07;4.47;;;4.07;;
4547;SDS011;2286;51.570;7.090;2023-04-24T07:48:34;6.00;;;4.37;;
4547;SDS011;2286;51.570;7.090;2023-04-24T07:51:01;3.93;;;3.63;;
4547;SDS011;2286;51.570;7.090;2023-04-24T07:53:28;3.53;;;3.30;;
4547;SDS011;2286;51.570;7.090;2023-04-24T07:55:55;3.00;;;2.80;;
4547;SDS011;2286;51.570;7.090;2023-04-24T07:58:23;2.37;;;2.17;;
4547;SDS011;2286;51.570;7.090;2023-04-24T08:00:50;2.40;;;2.20;;
4547;SDS011;2286;51.570;7.090;2023-04-24T08:03:17;2.70;;;2.20;;
4547;SDS011;2286;51.570;7.090;2023-04-24T08:05:44;3.63;;;2.30;;
4547;SDS011;2286;51.570;7.090;2023-04-24T08:08:12;2.80;;;2.50;;
4547;SDS011;2286;51.570;7.090;2023-04-24T08:10:39;2.63;;;2.43;;
4547;SDS011;2286;51.570;7.090;2023-04-24T08:13:06;4.13;;;2.50;;
4547;SDS011;2286;51.570;7.090;2023-04-24T08:15:34;2.70;;;2.30;;
4547;SDS011;2286;51.570;7.090;2023-04-24T08:18:01;2.20;;;2.00;;
4547;SDS011;2286;51.570;7.090;2023-04-24T08:20:28;0.60;;;0.50;;
4547;SDS011;2286;51.570;7.090;2023-04-24T08:22:55;0.40;;;0.40;;
4547;SDS011;2286;51.570;7.090;2023-04-24T08:25:22;0.40;;;0.30;;
4547;SDS011;2286;51.570;7.090;2023-04-24T08:27:49;0.40;;;0.30;;
4547;SDS011;2286;51.570;7.090;2023-04-24T08:30:16;0.40;;;0.30;;
4547;SDS011;2286;51.570;7.090;2023-04-24T08:32:45;0.40;;;0.30;;
4547;SDS011;2286;51.570;7.090;2023-04-24T08:35:12;0.40;;;0.37;;
4547;SDS011;2286;51.570;7.090;2023-04-24T08:37:39;0.40;;;0.40;;
4547;SDS011;2286;51.570;7.090;2023-04-24T08:40:06;0.40;;;0.30;;
4547;SDS011;2286;51.570;7.090;2023-04-24T08:42:39;0.40;;;0.30;;
4547;SDS011;2286;51.570;7.090;2023-04-24T08:45:08;0.40;;;0.30;;
4547;SDS011;2286;51.570;7.090;2023-04-24T08:47:35;0.40;;;0.40;;
4547;SDS011;2286;51.570;7.090;2023-04-24T08:50:06;0.40;;;0.30;;
4547;SDS011;2286;51.570;7.090;2023-04-24T08:52:34;0.40;;;0.30;;
4547;SDS011;2286;51.570;7.090;2023-04-24T08:55:01;0.40;;;0.30;;
4547;SDS011;2286;51.570;7.090;2023-04-24T08:57:29;0.40;;;0.30;;
4547;SDS011;2286;51.570;7.090;2023-04-24T08:59:58;0.40;;;0.30;;
4547;SDS011;2286;51.570;7.090;2023-04-24T09:02:25;0.70;;;0.60;;
4547;SDS011;2286;51.570;7.090;2023-04-24T09:04:53;0.40;;;0.30;;
4547;SDS011;2286;51.570;7.090;2023-04-24T09:07:24;0.40;;;0.30;;
4547;SDS011;2286;51.570;7.090;2023-04-24T09:09:53;0.40;;;0.30;;
4547;SDS011;2286;51.570;7.090;2023-04-24T09:12:21;0.40;;;0.40;;
4547;SDS011;2286;51.570;7.090;2023-04-24T09:14:48;0.40;;;0.30;;
4547;SDS011;2286;51.570;7.090;2023-04-24T09:17:16;0.40;;;0.30;;
4547;SDS011;2286;51.570;7.090;2023-04-24T09:19:43;0.40;;;0.30;;
4547;SDS011;2286;51.570;7.090;2023-04-24T09:22:10;0.40;;;0.30;;
4547;SDS011;2286;51.570;7.090;2023-04-24T09:24:39;1.67;;;0.87;;
4547;SDS011;2286;51.570;7.090;2023-04-24T09:27:06;0.40;;;0.30;;
4547;SDS011;2286;51.570;7.090;2023-04-24T09:29:33;0.40;;;0.30;;
4547;SDS011;2286;51.570;7.090;2023-04-24T09:32:03;0.40;;;0.30;;
4547;SDS011;2286;51.570;7.090;2023-04-24T09:34:46;0.40;;;0.30;;
4547;SDS011;2286;51.570;7.090;2023-04-24T09:37:18;0.40;;;0.30;;
4547;SDS011;2286;51.570;7.090;2023-04-24T09:40:08;0.40;;;0.30;;
4547;SDS011;2286;51.570;7.090;2023-04-24T09:42:39;0.50;;;0.43;;
4547;SDS011;2286;51.570;7.090;2023-04-24T09:45:09;0.40;;;0.30;;
4547;SDS011;2286;51.570;7.090;2023-04-24T09:47:37;0.40;;;0.30;;
4547;SDS011;2286;51.570;7.090;2023-04-24T09:50:12;0.40;;;0.30;;
4547;SDS011;2286;51.570;7.090;2023-04-24T09:52:41;0.40;;;0.30;;
4547;SDS011;2286;51.570;7.090;2023-04-24T09:55:20;0.40;;;0.30;;
4547;SDS011;2286;51.570;7.090;2023-04-24T09:57:48;0.40;;;0.30;;
4547;SDS011;2286;51.570;7.090;2023-04-24T10:00:21;0.40;;;0.30;;
4547;SDS011;2286;51.570;7.090;2023-04-24T10:02:56;0.40;;;0.40;;
4547;SDS011;2286;51.570;7.090;2023-04-24T10:05:25;0.40;;;0.30;;
4547;SDS011;2286;51.570;7.090;2023-04-24T10:07:57;1.33;;;1.23;;
4547;SDS011;2286;51.570;7.090;2023-04-24T10:10:28;0.50;;;0.50;;
4547;SDS011;2286;51.570;7.090;2023-04-24T10:12:55;0.40;;;0.30;;
4547;SDS011;2286;51.570;7.090;2023-04-24T10:15:22;0.40;;;0.40;;
4547;SDS011;2286;51.570;7.090;2023-04-24T10:17:50;0.40;;;0.30;;
4547;SDS011;2286;51.570;7.090;2023-04-24T10:20:21;0.40;;;0.30;;
4547;SDS011;2286;51.570;7.090;2023-04-24T10:22:49;0.40;;;0.40;;
4547;SDS011;2286;51.570;7.090;2023-04-24T10:25:18;0.40;;;0.30;;
4547;SDS011;2286;51.570;7.090;2023-04-24T10:27:48;0.40;;;0.30;;
4547;SDS011;2286;51.570;7.090;2023-04-24T10:30:16;0.40;;;0.30;;
4547;SDS011;2286;51.570;7.090;2023-04-24T10:32:43;0.40;;;0.30;;
4547;SDS011;2286;51.570;7.090;2023-04-24T10:35:11;2.93;;;0.93;;
4547;SDS011;2286;51.570;7.090;2023-04-24T10:37:40;0.40;;;0.30;;
4547;SDS011;2286;51.570;7.090;2023-04-24T10:40:11;0.40;;;0.40;;
4547;SDS011;2286;51.570;7.090;2023-04-24T10:42:42;0.50;;;0.50;;
4547;SDS011;2286;51.570;7.090;2023-04-24T10:45:17;0.40;;;0.30;;
4547;SDS011;2286;51.570;7.090;2023-04-24T10:47:52;0.40;;;0.40;;
4547;SDS011;2286;51.570;7.090;2023-04-24T10:50:23;0.40;;;0.40;;
4547;SDS011;2286;51.570;7.090;2023-04-24T10:52:51;0.40;;;0.40;;
4547;SDS011;2286;51.570;7.090;2023-04-24T10:55:40;0.40;;;0.30;;
4547;SDS011;2286;51.570;7.090;2023-04-24T10:58:08;0.40;;;0.30;;
4547;SDS011;2286;51.570;7.090;2023-04-24T11:00:38;0.70;;;0.60;;
4547;SDS011;2286;51.570;7.090;2023-04-24T11:03:06;0.40;;;0.30;;
4547;SDS011;2286;51.570;7.090;2023-04-24T11:05:49;1.00;;;1.00;;
4547;SDS011;2286;51.570;7.090;2023-04-24T11:08:21;0.40;;;0.30;;
4547;SDS011;2286;51.570;7.090;2023-04-24T11:10:56;0.60;;;0.60;;
4547;SDS011;2286;51.570;7.090;2023-04-24T11:13:26;0.50;;;0.40;;
4547;SDS011;2286;51.570;7.090;2023-04-24T11:16:14;1.03;;;0.93;;
4547;SDS011;2286;51.570;7.090;2023-04-24T11:18:49;0.40;;;0.30;;
4547;SDS011;2286;51.570;7.090;2023-04-24T11:21:19;0.60;;;0.60;;
4547;SDS011;2286;51.570;7.090;2023-04-24T11:23:46;0.40;;;0.30;;
4547;SDS011;2286;51.570;7.090;2023-04-24T11:26:17;0.40;;;0.40;;
4547;SDS011;2286;51.570;7.090;2023-04-24T11:28:45;0.50;;;0.40;;
4547;SDS011;2286;51.570;7.090;2023-04-24T11:34:07;0.40;;;0.30;;
4547;SDS011;2286;51.570;7.090;2023-04-24T11:36:35;2.43;;;2.23;;
4547;SDS011;2286;51.570;7.090;2023-04-24T11:39:02;0.40;;;0.30;;
4547;SDS011;2286;51.570;7.090;2023-04-24T11:41:30;0.40;;;0.30;;
4547;SDS011;2286;51.570;7.090;2023-04-24T11:43:57;0.40;;;0.30;;
4547;SDS011;2286;51.570;7.090;2023-04-24T11:46:26;0.93;;;0.50;;
4547;SDS011;2286;51.570;7.090;2023-04-24T11:48:56;0.40;;;0.30;;
4547;SDS011;2286;51.570;7.090;2023-04-24T11:51:24;0.43;;;0.37;;
4547;SDS011;2286;51.570;7.090;2023-04-24T11:53:51;0.40;;;0.40;;
4547;SDS011;2286;51.570;7.090;2023-04-24T11:56:19;0.40;;;0.40;;
4547;SDS011;2286;51.570;7.090;2023-04-24T11:58:48;0.40;;;0.40;;
4547;SDS011;2286;51.570;7.090;2023-04-24T12:01:15;0.50;;;0.50;;
4547;SDS011;2286;51.570;7.090;2023-04-24T12:03:42;0.40;;;0.30;;
4547;SDS011;2286;51.570;7.090;2023-04-24T12:06:16;0.40;;;0.30;;
4547;SDS011;2286;51.570;7.090;2023-04-24T12:08:45;0.40;;;0.30;;
4547;SDS011;2286;51.570;7.090;2023-04-24T12:11:14;1.47;;;0.90;;
4547;SDS011;2286;51.570;7.090;2023-04-24T12:13:43;0.40;;;0.30;;
4547;SDS011;2286;51.570;7.090;2023-04-24T12:16:11;0.40;;;0.40;;
4547;SDS011;2286;51.570;7.090;2023-04-24T12:18:41;0.40;;;0.30;;
4547;SDS011;2286;51.570;7.090;2023-04-24T12:21:18;1.57;;;1.47;;
4547;SDS011;2286;51.570;7.090;2023-04-24T12:23:46;0.40;;;0.40;;
4547;SDS011;2286;51.570;7.090;2023-04-24T12:26:16;0.40;;;0.30;;
4547;SDS011;2286;51.570;7.090;2023-04-24T12:28:46;0.40;;;0.40;;
4547;SDS011;2286;51.570;7.090;2023-04-24T12:31:14;0.40;;;0.40;;
4547;SDS011;2286;51.570;7.090;2023-04-24T12:33:41;0.53;;;0.53;;
4547;SDS011;2286;51.570;7.090;2023-04-24T12:36:09;0.50;;;0.40;;
4547;SDS011;2286;51.570;7.090;2023-04-24T12:38:39;0.40;;;0.30;;
4547;SDS011;2286;51.570;7.090;2023-04-24T12:41:11;0.50;;;0.50;;
4547;SDS011;2286;51.570;7.090;2023-04-24T12:43:50;5.00;;;2.80;;
4547;SDS011;2286;51.570;7.090;2023-04-24T12:46:17;7.33;;;4.47;;
4547;SDS011;2286;51.570;7.090;2023-04-24T12:48:44;9.63;;;4.50;;
4547;SDS011;2286;51.570;7.090;2023-04-24T12:51:11;5.63;;;3.83;;
4547;SDS011;2286;51.570;7.090;2023-04-24T12:53:39;4.70;;;3.57;;
4547;SDS011;2286;51.570;7.090;2023-04-24T12:56:06;6.07;;;3.13;;
4547;SDS011;2286;51.570;7.090;2023-04-24T12:58:33;2.63;;;2.43;;
4547;SDS011;2286;51.570;7.090;2023-04-24T13:01:00;3.90;;;3.03;;
4547;SDS011;2286;51.570;7.090;2023-04-24T13:03:27;3.33;;;2.20;;
4547;SDS011;2286;51.570;7.090;2023-04-24T13:05:54;3.00;;;1.90;;
4547;SDS011;2286;51.570;7.090;2023-04-24T13:08:21;4.70;;;1.80;;
4547;SDS011;2286;51.570;7.090;2023-04-24T13:10:49;4.90;;;2.00;;
4547;SDS011;2286;51.570;7.090;2023-04-24T13:13:17;6.10;;;2.40;;
4547;SDS011;2286;51.570;7.090;2023-04-24T13:15:43;2.87;;;2.13;;
4547;SDS011;2286;51.570;7.090;2023-04-24T13:18:10;1.97;;;1.77;;
4547;SDS011;2286;51.570;7.090;2023-04-24T13:20:37;4.40;;;1.90;;
4547;SDS011;2286;51.570;7.090;2023-04-24T13:23:06;2.37;;;1.60;;
4547;SDS011;2286;51.570;7.090;2023-04-24T13:25:34;4.60;;;1.83;;
4547;SDS011;2286;51.570;7.090;2023-04-24T13:28:03;6.77;;;1.97;;
4547;SDS011;2286;51.570;7.090;2023-04-24T13:30:30;2.43;;;1.70;;
4547;SDS011;2286;51.570;7.090;2023-04-24T13:32:57;4.03;;;1.80;;
4547;SDS011;2286;51.570;7.090;2023-04-24T13:35:24;3.47;;;2.00;;
4547;SDS011;2286;51.570;7.090;2023-04-24T13:37:51;1.97;;;1.80;;
4547;SDS011;2286;51.570;7.090;2023-04-24T13:40:18;2.57;;;2.37;;
4547;SDS011;2286;51.570;7.090;2023-04-24T13:42:45;4.80;;;2.93;;
4547;SDS011;2286;51.570;7.090;2023-04-24T13:45:13;3.33;;;3.03;;
4547;SDS011;2286;51.570;7.090;2023-04-24T13:47:40;4.30;;;2.07;;
4547;SDS011;2286;51.570;7.090;2023-04-24T13:50:07;2.80;;;1.90;;
4547;SDS011;2286;51.570;7.090;2023-04-24T13:52:35;2.53;;;2.00;;
4547;SDS011;2286;51.570;7.090;2023-04-24T13:55:02;2.43;;;1.70;;
4547;SDS011;2286;51.570;7.090;2023-04-24T13:57:29;7.87;;;1.90;;
4547;SDS011;2286;51.570;7.090;2023-04-24T13:59:57;3.10;;;2.80;;
4547;SDS011;2286;51.570;7.090;2023-04-24T14:02:27;3.93;;;2.50;;
4547;SDS011;2286;51.570;7.090;2023-04-24T14:04:54;6.30;;;2.37;;
4547;SDS011;2286;51.570;7.090;2023-04-24T14:07:21;2.77;;;2.27;;
4547;SDS011;2286;51.570;7.090;2023-04-24T14:09:48;3.33;;;2.40;;
4547;SDS011;2286;51.570;7.090;2023-04-24T14:12:15;2.40;;;2.10;;
4547;SDS011;2286;51.570;7.090;2023-04-24T14:14:44;4.60;;;2.83;;
4547;SDS011;2286;51.570;7.090;2023-04-24T14:17:12;6.03;;;2.30;;
4547;SDS011;2286;51.570;7.090;2023-04-24T14:19:41;4.50;;;2.30;;
4547;SDS011;2286;51.570;7.090;2023-04-24T14:22:09;2.90;;;2.10;;
4547;SDS011;2286;51.570;7.090;2023-04-24T14:24:36;3.70;;;2.40;;
4547;SDS011;2286;51.570;7.090;2023-04-24T14:27:03;5.00;;;2.07;;
4547;SDS011;2286;51.570;7.090;2023-04-24T14:29:30;3.83;;;2.50;;
4547;SDS011;2286;51.570;7.090;2023-04-24T14:31:57;2.33;;;2.10;;
4547;SDS011;2286;51.570;7.090;2023-04-24T14:34:24;3.47;;;2.20;;
4547;SDS011;2286;51.570;7.090;2023-04-24T14:36:52;4.13;;;2.13;;
4547;SDS011;2286;51.570;7.090;2023-04-24T14:39:19;3.47;;;2.57;;
4547;SDS011;2286;51.570;7.090;2023-04-24T14:41:46;2.97;;;2.37;;
4547;SDS011;2286;51.570;7.090;2023-04-24T14:44:13;3.63;;;3.33;;
4547;SDS011;2286;51.570;7.090;2023-04-24T14:46:41;4.13;;;3.40;;
4547;SDS011;2286;51.570;7.090;2023-04-24T14:49:08;3.80;;;3.43;;
4547;SDS011;2286;51.570;7.090;2023-04-24T14:51:36;5.00;;;3.77;;
4547;SDS011;2286;51.570;7.090;2023-04-24T14:54:05;5.27;;;3.53;;
4547;SDS011;2286;51.570;7.090;2023-04-24T14:56:32;3.60;;;3.30;;
4547;SDS011;2286;51.570;7.090;2023-04-24T14:58:59;5.80;;;4.10;;
4547;SDS011;2286;51.570;7.090;2023-04-24T15:01:26;4.90;;;4.10;;
4547;SDS011;2286;51.570;7.090;2023-04-24T15:03:53;3.90;;;3.37;;
4547;SDS011;2286;51.570;7.090;2023-04-24T15:06:20;7.80;;;4.10;;
4547;SDS011;2286;51.570;7.090;2023-04-24T15:08:47;4.77;;;3.60;;
4547;SDS011;2286;51.570;7.090;2023-04-24T15:11:16;3.30;;;2.20;;
4547;SDS011;2286;51.570;7.090;2023-04-24T15:13:43;3.97;;;2.40;;
4547;SDS011;2286;51.570;7.090;2023-04-24T15:16:10;4.67;;;2.43;;
4547;SDS011;2286;51.570;7.090;2023-04-24T15:18:37;2.53;;;1.93;;